• Join FlightAware (Why Join?)
  • Login
  • US Flag 
05:30AM EDT


 

Airport Tracker/Info


-or-


 

Live Flight TrackerFlight Track Log ✈ ASQ5685 ✈ 24-Sep-2013 ✈ KATL - KIAD

Flight Track Log - Related Links

Times and Time Zones

All times are in EDT time to prevent confusion due to time zone crossing. See the ASQ5685 flight status page for this flight to view local times or setup timezone preferences in your user account.

Time Position Orientation Groundspeed Altitude Reporting Facility
EDT Latitude Longitude Course Direction KTS MPH feet Rate Location/Type
09:40AM 33.6350 -84.3906 72° East 381 438 29,000  Level Atlanta Center
09:41AM 33.6333 -84.3158 92° East 289 333 4,400 -10,920 Descending Atlanta Center
09:42AM 33.8698 -84.1508 54° Northeast  Level Estimated
09:42AM 33.6314 -84.2208 91° East 279 321 7,200  Level Atlanta Center
09:43AM 33.9474 -84.0582 48° Northeast  Level Estimated
09:43AM 33.6336 -84.1236 88° East 294 338 10,000  Level Atlanta Center
09:44AM 34.0248 -83.9653 53° Northeast  Level Estimated
09:44AM 33.6836 -84.0364 55° Northeast 294 338 11,200  Level Atlanta Center
09:45AM 34.0581 -83.8397 72° East  Level FlightAware Approximate
09:45AM 33.7525 -83.9464 47° Northeast 326 375 12,600  Level Atlanta Center
09:46AM 33.8253 -83.8536 47° Northeast 361 415 14,400 1,680 Climbing Atlanta Center
09:47AM 33.8961 -83.7611 47° Northeast 368 423 16,000 1,380 Climbing Atlanta Center
09:48AM 33.9647 -83.6581 51° Northeast 380 437 17,200 1,020 Climbing Atlanta Center
09:49AM 34.0394 -83.5450 51° Northeast 389 448 18,100 900 Climbing Atlanta Center
09:50AM 34.1058 -83.4317 55° Northeast 402 463 19,100 960 Climbing Atlanta Center
09:51AM 34.1761 -83.3231 52° Northeast 407 468 20,100 900 Climbing Atlanta Center
09:52AM 34.2444 -83.2094 54° Northeast 413 475 21,000 840 Climbing Atlanta Center
09:53AM 34.3144 -83.0956 53° Northeast 420 483 21,800 720 Climbing Atlanta Center
09:54AM 34.3886 -82.9842 51° Northeast 415 478 22,500 660 Climbing Atlanta Center
09:55AM 34.4564 -82.8647 55° Northeast 420 483 23,200 600 Climbing Atlanta Center
09:56AM 34.5325 -82.7503 51° Northeast 420 483 23,700 600 Climbing Atlanta Center
09:57AM 34.6083 -82.6306 52° Northeast 436 502 24,500 780 Climbing Atlanta Center
09:58AM 34.6678 -82.5311 54° Northeast 429 494 25,300 900 Climbing Atlanta Center
09:59AM 34.7394 -82.4133 53° Northeast 424 488 26,300 900 Climbing Atlanta Center
10:00AM 34.8086 -82.2958 54° Northeast 424 488 27,200 840 Climbing Atlanta Center
10:01AM 34.8800 -82.1828 52° Northeast 418 481 28,000 840 Climbing Atlanta Center
10:02AM 34.9514 -82.0672 53° Northeast 418 481 28,900 480 Climbing Atlanta Center
10:03AM 35.0225 -81.9514 53° Northeast 423 487 29,000  Climbing Atlanta Center
10:04AM 35.0850 -81.8331 57° Northeast 418 481 29,000  Level Atlanta Center
10:05AM 35.1475 -81.7172 57° Northeast 413 475 29,000  Level Atlanta Center
10:06AM 35.2058 -81.6011 58° Northeast 402 463 29,000  Level Atlanta Center
10:07AM 35.2683 -81.4872 56° Northeast 402 463 29,000  Level Atlanta Center
10:08AM 35.3303 -81.3631 59° Northeast 395 455 29,000  Level Atlanta Center
10:09AM 35.3903 -81.2467 58° Northeast 395 455 29,000  Level Atlanta Center
10:10AM 35.4503 -81.1325 57° Northeast 395 455 29,000  Level Atlanta Center
10:11AM 35.5100 -81.0156 58° Northeast 395 455 29,000  Level Atlanta Center
10:12AM 35.5697 -80.9008 57° Northeast 395 455 29,000  Level Atlanta Center
10:13AM 35.6294 -80.7914 56° Northeast 395 455 29,000  Level Atlanta Center
10:14AM 35.6889 -80.6739 58° Northeast 395 455 29,000  Level Atlanta Center
10:15AM 35.7483 -80.5614 57° Northeast 395 455 29,000  Level Atlanta Center
10:16AM 35.8056 -80.4464 58° Northeast 395 455 29,000  Level Atlanta Center
10:18AM 35.9069 -80.2464 58° Northeast 395 455 29,000  Level Washington Center
10:19AM 35.9656 -80.1294 58° Northeast 395 455 29,000  Level Washington Center
10:20AM 36.0306 -80.0097 56° Northeast 390 449 29,000  Level Washington Center
10:21AM 36.0933 -79.8950 56° Northeast 390 449 29,000  Level Washington Center
10:22AM 36.1556 -79.7853 55° Northeast 390 449 29,000  Level Washington Center
10:23AM 36.2200 -79.6703 55° Northeast 390 449 29,000  Level Washington Center
10:24AM 36.2844 -79.5575 55° Northeast 390 449 29,000  Level Washington Center
10:25AM 36.3397 -79.4597 55° Northeast 390 449 29,000  Level Washington Center
10:26AM 36.4064 -79.3367 56° Northeast 390 449 29,000  Level Washington Center
10:27AM 36.4703 -79.2236 55° Northeast 390 449 29,000 -600 Level Washington Center
10:28AM 36.5319 -79.1153 55° Northeast 390 449 27,900 -1,080 Descending Washington Center
10:29AM 36.5958 -79.0017 55° Northeast 390 449 26,900 -1,080 Descending Washington Center
10:30AM 36.6572 -78.8931 55° Northeast 395 455 25,800 -960 Descending Washington Center
10:31AM 36.7167 -78.7789 57° Northeast 390 449 25,000 -420 Descending Washington Center
10:32AM 36.7736 -78.6750 56° Northeast 380 437 25,000 -300 Level Washington Center
10:33AM 36.8467 -78.5869 44° Northeast 366 421 24,500 -540 Descending Washington Center
10:34AM 36.9261 -78.4967 42° Northeast 366 421 24,000 -540 Descending Washington Center
10:35AM 36.9989 -78.4189 40° Northeast 373 429 23,500 -540 Descending Washington Center
10:36AM 37.0803 -78.3306 41° Northeast 378 435 23,000 -480 Descending Washington Center
10:37AM 37.1594 -78.2447 41° Northeast 378 435 22,600 -360 Descending Washington Center
10:39AM 37.3197 -78.0650 42° Northeast 367 422 22,000 -240 Descending Washington Center
10:40AM 37.3944 -77.9786 43° Northeast 367 422 22,000  Level Washington Center
10:41AM 37.4669 -77.8969 42° Northeast 362 417 22,000 -180 Level Washington Center
10:42AM 37.5456 -77.8208 38° Northeast 356 410 21,700 -420 Descending Washington Center
10:43AM 37.6364 -77.7658 26° Northeast 356 410 21,200 -900 Descending Washington Center
10:44AM 37.7228 -77.7158 25° Northeast 350 403 19,900 -1,560 Descending Washington Center
10:45AM 37.8092 -77.6631 26° Northeast 344 396 18,100 -1,800 Descending Washington Center
10:46AM 37.8933 -77.6153 24° Northeast 339 390 16,400 -1,800 Descending Washington Center
10:47AM 37.9903 -77.5572 25° Northeast 326 375 14,300 -1,740 Descending Washington Center
10:48AM 38.0639 -77.5169 23° Northeast 321 369 12,600 -1,740 Descending Washington Center
10:49AM 38.1439 -77.4717 24° Northeast 321 369 10,900 -1,620 Descending Washington Center
10:50AM 38.2156 -77.4258 27° Northeast 308 354 9,400 -1,320 Descending Washington Center
10:51AM 38.2869 -77.3958 18° North 289 333 8,300 -1,080 Descending Washington Center
10:52AM 38.3528 -77.4425 331° Northwest 250 288 7,300 2,340 Descending Washington Center
10:53AM 38.4297 -77.4708 344° North 250 288 13,000 -360 Climbing Washington Center
10:54AM 38.4983 -77.4700 North 258 297 6,700 -3,420 Descending Washington Center
10:55AM 38.5736 -77.4664 North 258 297 6,100 -660 Descending Washington Center
10:57AM 38.6833 -77.4667 360° North 241 277 5,100 -720 Descending Potomac TRACON
10:58AM 38.7333 -77.4667 360° North 190 219 4,400 -900 Descending Potomac TRACON
10:59AM 38.7833 -77.4667 360° North 169 194 3,400 -960 Descending Potomac TRACON
11:00AM 38.8333 -77.4667 360° North 169 194 2,500 -900 Descending Potomac TRACON
11:01AM 38.8833 -77.4667 360° North 140 161 1,700 -840 Descending Potomac TRACON
11:02AM 38.9167 -77.4667 360° North 133 153 900 -840 Descending Potomac TRACON